Time;durP1;ratioP1;P1;durP2;ratioP2;P2;SDS_P1;SDS_P2;PMS_P1;PMS_P2;Temp;Humidity;BMP_temperature;BMP_pressure;BME280_temperature;BME280_humidity;BME280_pressure;Samples;Min_cycle;Max_cycle;Signal;HPM_P1;HPM_P2
2023/01/26 00:00:18;;;;;;;42.20;17.50;;;;;;;0.51;100.00;100137.48;104994;1292;24374;-31
2023/01/26 00:02:44;;;;;;;46.60;20.40;;;;;;;0.49;100.00;100139.63;104876;1289;23170;-35
2023/01/26 00:05:10;;;;;;;53.50;21.50;;;;;;;0.47;100.00;100140.09;104958;1302;23165;-34
2023/01/26 00:07:36;;;;;;;58.50;20.10;;;;;;;0.43;100.00;100137.52;104840;1292;24419;-32
2023/01/26 00:10:02;;;;;;;42.70;17.50;;;;;;;0.41;100.00;100133.32;104864;1292;23196;-30
2023/01/26 00:12:28;;;;;;;49.00;18.80;;;;;;;0.39;100.00;100132.57;104788;1292;23180;-32
2023/01/26 00:14:54;;;;;;;36.70;15.20;;;;;;;0.37;100.00;100129.89;104835;1292;24301;-30
2023/01/26 00:19:51;;;;;;;49.60;18.00;;;;;;;0.34;100.00;100123.58;104854;1302;24454;-35
2023/01/26 00:22:16;;;;;;;45.50;19.10;;;;;;;0.31;100.00;100122.77;104816;1292;24749;-35
2023/01/26 00:24:42;;;;;;;37.00;16.40;;;;;;;0.28;100.00;100130.22;104791;1292;22758;-34
2023/01/26 00:27:08;;;;;;;50.70;19.20;;;;;;;0.25;100.00;100128.83;104868;1302;24419;-36
2023/01/26 00:29:33;;;;;;;38.60;17.30;;;;;;;0.24;100.00;100123.97;104877;1292;22667;-35
2023/01/26 00:31:59;;;;;;;32.90;16.20;;;;;;;0.25;100.00;100117.75;104884;1292;24273;-30
2023/01/26 00:34:24;;;;;;;33.60;14.80;;;;;;;0.23;100.00;100119.61;104989;1298;24278;-30
2023/01/26 00:36:50;;;;;;;46.70;17.00;;;;;;;0.26;100.00;100116.98;105072;1298;23163;-34
2023/01/26 00:39:17;;;;;;;33.30;15.90;;;;;;;0.28;100.00;100119.84;104915;1298;22809;-30
2023/01/26 00:44:12;;;;;;;59.80;21.60;;;;;;;0.36;100.00;100119.89;104882;1302;22803;-30
2023/01/26 00:46:37;;;;;;;45.10;17.90;;;;;;;0.35;100.00;100119.66;104980;1298;23164;-31
2023/01/26 00:49:03;;;;;;;50.50;19.30;;;;;;;0.34;100.00;100117.29;104906;1299;22672;-31
2023/01/26 00:51:29;;;;;;;47.30;19.20;;;;;;;0.33;100.00;100110.99;104984;1303;22665;-31
2023/01/26 00:53:55;;;;;;;43.00;20.80;;;;;;;0.33;100.00;100103.61;104977;1299;22567;-30
2023/01/26 00:56:21;;;;;;;55.50;22.60;;;;;;;0.33;100.00;100103.45;104931;1302;23110;-31
2023/01/26 00:58:47;;;;;;;42.70;15.70;;;;;;;0.30;100.00;100103.68;104957;1302;22637;-39
2023/01/26 01:01:13;;;;;;;61.60;29.10;;;;;;;0.33;100.00;100109.58;105087;1299;22767;-35
2023/01/26 01:03:39;;;;;;;40.50;20.90;;;;;;;0.32;100.00;100107.51;104883;1302;22766;-34
2023/01/26 01:06:05;;;;;;;42.20;19.00;;;;;;;0.33;100.00;100100.93;105025;1302;24279;-34
2023/01/26 01:08:31;;;;;;;55.30;19.80;;;;;;;0.35;100.00;100099.93;104967;1299;22621;-30
2023/01/26 01:11:10;;;;;;;59.00;21.70;;;;;;;0.37;100.00;100101.52;105067;1299;23172;-30
2023/01/26 01:13:35;;;;;;;58.70;22.70;;;;;;;0.38;100.00;100102.89;104939;1299;22562;-36
2023/01/26 01:16:05;;;;;;;50.50;18.90;;;;;;;0.34;100.00;100104.37;104881;1302;24200;-32
2023/01/26 01:18:31;;;;;;;43.00;21.00;;;;;;;0.32;100.00;100105.30;104931;1302;23055;-36
2023/01/26 01:20:56;;;;;;;90.60;44.60;;;;;;;0.28;100.00;100108.36;105010;1299;23161;-35
2023/01/26 01:23:22;;;;;;;44.90;19.50;;;;;;;0.27;100.00;100108.83;104928;1299;22812;-36
2023/01/26 01:25:56;;;;;;;48.50;19.90;;;;;;;0.26;100.00;100103.23;104994;1299;22783;-30
2023/01/26 01:28:21;;;;;;;;;;;;;;;0.29;100.00;100100.74;105053;1300;23158;-30
2023/01/26 01:30:47;;;;;;;366.30;221.90;;;;;;;0.29;100.00;100097.77;104884;1302;24372;-32
2023/01/26 01:33:13;;;;;;;102.80;47.90;;;;;;;0.26;100.00;100092.31;105030;1299;22734;-37
2023/01/26 01:35:38;;;;;;;167.80;87.10;;;;;;;0.21;100.00;100089.80;105036;1295;22616;-32
2023/01/26 01:38:04;;;;;;;60.00;24.80;;;;;;;0.22;100.00;100087.50;104994;1299;25413;-36
2023/01/26 01:40:30;;;;;;;43.90;20.90;;;;;;;0.22;100.00;100084.36;105006;1295;22566;-32
2023/01/26 01:42:56;;;;;;;65.50;29.90;;;;;;;0.22;100.00;100082.05;105000;1303;22563;-33
2023/01/26 01:45:34;;;;;;;221.90;114.70;;;;;;;0.22;100.00;100074.27;104911;1299;22659;-34
2023/01/26 01:48:01;;;;;;;348.90;212.70;;;;;;;0.25;100.00;100077.45;105096;1299;23030;-31
2023/01/26 01:50:27;;;;;;;175.00;107.30;;;;;;;0.24;100.00;100080.86;104923;1299;22659;-31
2023/01/26 01:52:53;;;;;;;277.50;163.40;;;;;;;0.18;100.00;100077.95;104943;1302;23027;-36
2023/01/26 01:55:19;;;;;;;110.00;57.80;;;;;;;0.16;100.00;100077.41;105058;1299;24365;-34
2023/01/26 01:57:51;;;;;;;70.60;32.40;;;;;;;0.14;100.00;100077.67;104912;1303;22663;-30
2023/01/26 02:00:19;;;;;;;147.70;82.00;;;;;;;0.11;100.00;100072.26;104949;1299;23232;-35
2023/01/26 02:03:09;;;;;;;129.30;71.10;;;;;;;0.12;100.00;100075.40;105090;1295;22818;-32
2023/01/26 02:05:36;;;;;;;164.70;91.70;;;;;;;0.10;100.00;100076.09;105059;1302;22623;-36
2023/01/26 02:08:02;;;;;;;126.90;68.00;;;;;;;0.07;100.00;100067.63;105059;1295;24414;-35
2023/01/26 02:10:28;;;;;;;237.00;123.40;;;;;;;0.08;100.00;100069.55;104902;1304;23984;-37
2023/01/26 02:13:01;;;;;;;154.80;70.50;;;;;;;0.08;100.00;100065.11;104983;1301;22663;-37
2023/01/26 02:15:26;;;;;;;59.70;24.20;;;;;;;0.07;100.00;100056.78;105164;1299;22783;-37
2023/01/26 02:17:52;;;;;;;370.10;153.20;;;;;;;0.04;100.00;100054.72;104910;1303;22573;-35
2023/01/26 02:20:50;;;;;;;1130.40;493.50;;;;;;;0.02;100.00;100051.48;104888;1298;23160;-30
2023/01/26 02:23:25;;;;;;;522.00;224.60;;;;;;;0.01;100.00;100045.20;104947;1299;25379;-31
2023/01/26 02:26:10;;;;;;;71.60;26.10;;;;;;;0.01;100.00;100039.28;105052;1299;22814;-31
2023/01/26 02:28:35;;;;;;;83.20;29.20;;;;;;;0.02;100.00;100037.05;104897;1295;25364;-36
2023/01/26 02:31:01;;;;;;;66.30;25.60;;;;;;;0.03;100.00;100030.79;104879;1299;23082;-34
2023/01/26 02:33:28;;;;;;;49.10;20.00;;;;;;;0.06;100.00;100031.69;104862;1301;22652;-31
2023/01/26 02:35:53;;;;;;;61.30;24.50;;;;;;;0.10;100.00;100028.16;104912;1302;23187;-35
2023/01/26 02:38:21;;;;;;;49.80;23.10;;;;;;;0.16;100.00;100019.30;104903;1301;24391;-36
2023/01/26 02:40:56;;;;;;;42.70;19.00;;;;;;;0.19;100.00;100016.05;104948;1299;22803;-35
2023/01/26 02:43:23;;;;;;;45.80;20.10;;;;;;;0.23;100.00;100009.21;105118;1302;24352;-31
2023/01/26 02:45:49;;;;;;;53.00;21.30;;;;;;;0.27;100.00;100013.67;104961;1303;22681;-33
2023/01/26 02:49:45;;;;;;;73.00;28.70;;;;;;;0.26;100.00;100008.48;104885;1303;25295;-30
2023/01/26 02:51:02;;;;;;;62.30;26.80;;;;;;;0.26;100.00;100006.23;104924;1299;22559;-30
2023/01/26 02:53:28;;;;;;;52.70;23.90;;;;;;;0.23;100.00;100010.99;104830;1299;24311;-34
2023/01/26 02:55:53;;;;;;;68.30;29.50;;;;;;;0.19;100.00;100010.77;104956;1303;24506;-30
2023/01/26 02:58:19;;;;;;;44.10;21.40;;;;;;;0.19;100.00;100007.39;105025;1303;23090;-34
2023/01/26 03:00:45;;;;;;;42.50;18.50;;;;;;;0.22;100.00;100000.52;104909;1303;22802;-31
2023/01/26 03:03:14;;;;;;;52.90;25.10;;;;;;;0.25;100.00;99998.20;104850;1303;22792;-34
2023/01/26 03:05:39;;;;;;;38.80;17.50;;;;;;;0.25;100.00;99993.92;105113;1303;22576;-30
2023/01/26 03:08:05;;;;;;;42.40;19.40;;;;;;;0.27;100.00;99988.34;104901;1303;24225;-36
2023/01/26 03:10:32;;;;;;;50.10;21.90;;;;;;;0.30;100.00;99979.48;104999;1303;22524;-34
2023/01/26 03:12:58;;;;;;;52.00;23.60;;;;;;;0.32;100.00;99978.05;105044;1303;25430;-34
2023/01/26 03:15:41;;;;;;;39.80;19.30;;;;;;;0.35;100.00;99974.00;104933;1303;24321;-30
2023/01/26 03:28:46;;;;;;;45.60;22.10;;;;;;;0.36;100.00;99966.17;104838;1303;22656;-31
2023/01/26 03:31:12;;;;;;;42.80;18.80;;;;;;;0.32;100.00;99971.17;104897;1299;24403;-31
2023/01/26 03:33:37;;;;;;;58.70;21.50;;;;;;;0.32;100.00;99970.34;105022;1300;23163;-31
2023/01/26 03:36:04;;;;;;;43.70;20.90;;;;;;;0.34;100.00;99967.74;104971;1303;23157;-31
2023/01/26 03:38:29;;;;;;;43.60;20.10;;;;;;;0.30;100.00;99969.09;104980;1304;22768;-31
2023/01/26 03:56:44;;;;;;;28.70;14.30;;;;;;;0.24;100.00;99957.23;104958;1295;22660;-30
2023/01/26 03:59:13;;;;;;;35.40;18.60;;;;;;;0.21;100.00;99956.04;104951;1299;24290;-33
2023/01/26 04:09:14;;;;;;;34.10;16.40;;;;;;;0.13;100.00;99956.31;105029;1303;24349;-34
2023/01/26 04:11:39;;;;;;;43.60;19.60;;;;;;;0.07;100.00;99959.34;104875;1299;22739;-30
2023/01/26 04:22:00;;;;;;;32.20;16.80;;;;;;;0.03;100.00;99942.29;104902;1299;22668;-34
2023/01/26 04:24:26;;;;;;;47.50;20.10;;;;;;;0.04;100.00;99929.67;104995;1302;24516;-34
2023/01/26 04:26:52;;;;;;;41.00;19.70;;;;;;;-0.02;100.00;99931.33;104968;1299;23175;-34
2023/01/26 04:29:17;;;;;;;36.40;17.60;;;;;;;-0.11;100.00;99927.30;105027;1302;22651;-36
2023/01/26 04:31:43;;;;;;;34.70;18.40;;;;;;;-0.09;100.00;99928.34;104949;1298;22750;-34
2023/01/26 04:34:13;;;;;;;46.80;20.10;;;;;;;-0.12;100.00;99923.48;104987;1299;22804;-38
2023/01/26 05:15:15;;;;;;;30.40;17.90;;;;;;;-0.55;100.00;99924.89;104371;1296;556568;-29
2023/01/26 05:17:41;;;;;;;38.40;14.40;;;;;;;-0.58;100.00;99920.88;104217;1295;380562;-32
2023/01/26 05:20:08;;;;;;;31.30;16.10;;;;;;;-0.62;100.00;99912.76;104538;1298;22795;-31
2023/01/26 05:22:34;;;;;;;31.80;13.70;;;;;;;-0.65;100.00;99915.45;104710;1295;23035;-35
2023/01/26 05:25:00;;;;;;;30.80;13.70;;;;;;;-0.70;100.00;99913.74;104755;1299;22667;-34
2023/01/26 05:27:25;;;;;;;30.00;15.40;;;;;;;-0.70;100.00;99915.29;104611;1292;23009;-35
2023/01/26 05:29:51;;;;;;;23.80;11.90;;;;;;;-0.71;100.00;99910.64;104716;1289;22838;-36
2023/01/26 05:32:17;;;;;;;22.00;12.40;;;;;;;-0.76;100.00;99911.13;104695;1304;22660;-35
2023/01/26 05:34:43;;;;;;;30.60;15.70;;;;;;;-0.74;100.00;99916.96;104576;1297;22876;-31
2023/01/26 05:37:08;;;;;;;24.70;12.70;;;;;;;-0.74;100.00;99916.27;104610;1304;24422;-30
2023/01/26 05:39:34;;;;;;;25.70;10.90;;;;;;;-0.74;100.00;99915.74;104613;1289;22660;-30
2023/01/26 05:42:00;;;;;;;35.80;16.30;;;;;;;-0.74;100.00;99916.27;104670;1304;23028;-34
2023/01/26 05:44:26;;;;;;;22.20;12.50;;;;;;;-0.72;100.00;99913.13;104523;1288;22577;-35
2023/01/26 05:46:51;;;;;;;22.90;11.60;;;;;;;-0.70;100.00;99911.26;104507;1292;23074;-31
2023/01/26 05:49:17;;;;;;;31.90;14.80;;;;;;;-0.68;100.00;99912.33;104579;1289;22656;-31
2023/01/26 05:51:43;;;;;;;16.30;9.30;;;;;;;-0.67;100.00;99911.02;104617;1292;22596;-35
2023/01/26 05:54:09;;;;;;;30.20;14.70;;;;;;;-0.63;100.00;99908.28;104673;1292;22816;-33
2023/01/26 05:56:34;;;;;;;19.70;11.10;;;;;;;-0.66;100.00;99905.65;104619;1292;23148;-30
2023/01/26 05:59:00;;;;;;;21.50;11.00;;;;;;;-0.67;100.00;99904.54;104609;1292;22653;-30
2023/01/26 06:01:26;;;;;;;21.50;11.00;;;;;;;-0.62;100.00;99903.25;104617;1304;22666;-34
2023/01/26 06:03:53;;;;;;;22.70;11.10;;;;;;;-0.57;100.00;99903.42;104603;1295;25304;-33
2023/01/26 06:06:19;;;;;;;28.60;11.30;;;;;;;-0.57;100.00;99908.58;104762;1292;22667;-30
2023/01/26 06:08:44;;;;;;;28.90;15.10;;;;;;;-0.60;100.00;99911.55;104730;1304;24214;-33
2023/01/26 06:11:10;;;;;;;36.70;13.70;;;;;;;-0.56;100.00;99910.55;104726;1292;22953;-35
2023/01/26 06:13:36;;;;;;;32.80;13.60;;;;;;;-0.58;100.00;99909.45;104628;1292;22813;-34
2023/01/26 06:16:02;;;;;;;31.00;16.60;;;;;;;-0.62;100.00;99908.73;104570;1301;22568;-34
2023/01/26 06:18:29;;;;;;;27.30;12.20;;;;;;;-0.66;100.00;99908.48;104525;1301;24352;-31
2023/01/26 06:20:58;;;;;;;21.90;11.60;;;;;;;-0.59;100.00;99907.98;104592;1304;22667;-30
2023/01/26 06:23:25;;;;;;;27.80;13.80;;;;;;;-0.55;100.00;99909.64;104612;1294;22657;-32
2023/01/26 06:25:52;;;;;;;37.30;18.10;;;;;;;-0.56;100.00;99910.20;104621;1288;22546;-35
2023/01/26 06:28:19;;;;;;;24.80;13.30;;;;;;;-0.59;100.00;99910.63;104551;1294;24443;-31
2023/01/26 06:30:45;;;;;;;35.30;17.30;;;;;;;-0.65;100.00;99910.34;104553;1292;22829;-31
2023/01/26 06:33:11;;;;;;;38.70;18.20;;;;;;;-0.69;100.00;99911.21;104518;1304;22817;-31
2023/01/26 06:35:36;;;;;;;41.00;18.30;;;;;;;-0.72;100.00;99911.92;104527;1300;22817;-34
2023/01/26 06:38:02;;;;;;;44.10;20.40;;;;;;;-0.73;100.00;99912.20;104497;1292;22739;-30
2023/01/26 06:40:29;;;;;;;36.80;16.10;;;;;;;-0.74;100.00;99909.98;104174;1292;1002939;-34
2023/01/26 06:42:55;;;;;;;47.70;20.00;;;;;;;-0.70;100.00;99908.95;102520;1302;2001814;-30
2023/01/26 06:45:20;;;;;;;32.30;15.10;;;;;;;-0.66;100.00;99905.13;103223;1302;1005215;-30
2023/01/26 06:47:47;;;;;;;48.30;21.70;;;;;;;-0.71;100.00;99906.55;100318;1301;1002867;-29
2023/01/26 06:50:14;;;;;;;68.30;27.20;;;;;;;-0.73;100.00;99903.71;97449;1299;1015220;-32
2023/01/26 06:52:41;;;;;;;52.60;21.10;;;;;;;-0.74;100.00;99906.45;92379;1298;1015627;-31
2023/01/26 06:55:20;;;;;;;33.30;17.60;;;;;;;-0.71;100.00;99900.81;94571;1301;1015446;-34
2023/01/26 06:57:45;;;;;;;44.30;19.20;;;;;;;-0.65;100.00;99894.92;98946;1298;1004684;-35
2023/01/26 07:00:12;;;;;;;44.20;19.60;;;;;;;-0.66;100.00;99895.98;103984;1302;1002663;-30
2023/01/26 07:02:38;;;;;;;33.80;17.10;;;;;;;-0.63;100.00;99897.73;104728;1304;22559;-34
2023/01/26 07:05:04;;;;;;;32.90;14.80;;;;;;;-0.60;100.00;99893.84;104727;1301;22654;-31
2023/01/26 07:07:30;;;;;;;37.80;19.60;;;;;;;-0.58;100.00;99891.89;104705;1304;22945;-31
2023/01/26 07:09:56;;;;;;;34.90;18.10;;;;;;;-0.56;100.00;99893.02;104775;1304;22586;-35
2023/01/26 07:12:21;;;;;;;37.00;14.50;;;;;;;-0.56;100.00;99894.58;104722;1304;22660;-35
2023/01/26 07:14:50;;;;;;;44.10;20.00;;;;;;;-0.59;100.00;99900.10;104774;1302;23091;-31
2023/01/26 07:17:16;;;;;;;44.20;20.00;;;;;;;-0.57;100.00;99894.82;104872;1301;22574;-31
2023/01/26 07:19:42;;;;;;;47.90;23.00;;;;;;;-0.52;100.00;99885.45;104778;1302;22657;-29
2023/01/26 07:22:08;;;;;;;61.30;28.40;;;;;;;-0.53;100.00;99885.40;104771;1301;22827;-31
2023/01/26 07:24:33;;;;;;;44.90;21.20;;;;;;;-0.60;100.00;99882.41;104748;1301;22663;-35
2023/01/26 07:27:00;;;;;;;49.30;21.90;;;;;;;-0.68;100.00;99882.46;104701;1304;22798;-34
2023/01/26 07:29:26;;;;;;;45.10;20.70;;;;;;;-0.70;100.00;99882.78;104744;1304;23037;-32
2023/01/26 07:31:51;;;;;;;52.70;21.80;;;;;;;-0.74;100.00;99884.09;104712;1302;22680;-33
2023/01/26 07:34:18;;;;;;;50.40;21.80;;;;;;;-0.76;100.00;99881.94;104778;1302;23070;-29
2023/01/26 07:36:44;;;;;;;46.50;20.40;;;;;;;-0.74;100.00;99887.61;104655;1301;22866;-30
2023/01/26 07:39:10;;;;;;;60.90;29.80;;;;;;;-0.76;100.00;99887.39;104801;1301;22667;-30
2023/01/26 07:41:36;;;;;;;58.60;28.70;;;;;;;-0.73;100.00;99887.02;104660;1304;22805;-33
2023/01/26 07:44:03;;;;;;;56.60;28.00;;;;;;;-0.69;100.00;99885.88;104774;1302;22683;-29
2023/01/26 07:46:29;;;;;;;43.50;21.70;;;;;;;-0.67;100.00;99886.82;104744;1304;22742;-30
2023/01/26 07:48:55;;;;;;;54.30;25.50;;;;;;;-0.70;100.00;99889.14;104686;1302;25317;-34
2023/01/26 07:51:22;;;;;;;41.70;20.30;;;;;;;-0.69;100.00;99891.14;104708;1298;22816;-31
2023/01/26 07:53:48;;;;;;;32.40;16.90;;;;;;;-0.60;100.00;99886.58;104686;1301;22694;-33
2023/01/26 07:56:15;;;;;;;48.70;25.00;;;;;;;-0.43;100.00;99888.13;104666;1299;22660;-30
2023/01/26 07:58:41;;;;;;;55.60;24.80;;;;;;;-0.37;100.00;99883.69;104714;1304;24738;-32
2023/01/26 08:01:09;;;;;;;39.60;19.40;;;;;;;-0.32;100.00;99880.64;104681;1298;22800;-30
2023/01/26 08:03:35;;;;;;;53.40;24.20;;;;;;;-0.26;100.00;99881.58;104669;1304;24213;-31
2023/01/26 08:06:01;;;;;;;63.50;31.80;;;;;;;-0.26;100.00;99884.95;104735;1304;24765;-32
2023/01/26 08:08:27;;;;;;;59.00;28.30;;;;;;;-0.26;100.00;99887.90;104742;1304;24201;-31
2023/01/26 08:10:57;;;;;;;44.10;22.70;;;;;;;-0.23;100.00;99882.23;104746;1301;23069;-32
2023/01/26 08:13:23;;;;;;;44.60;20.20;;;;;;;-0.17;100.00;99879.37;104720;1298;22786;-35
2023/01/26 08:15:49;;;;;;;51.40;21.90;;;;;;;-0.16;100.00;99876.79;104675;1304;23524;-34
2023/01/26 08:18:15;;;;;;;39.10;18.00;;;;;;;-0.15;100.00;99876.55;104751;1298;23916;-33
2023/01/26 08:20:55;;;;;;;39.50;17.40;;;;;;;-0.10;100.00;99877.42;104828;1301;24421;-33
2023/01/26 08:23:21;;;;;;;63.10;30.00;;;;;;;-0.08;100.00;99875.46;104760;1304;22679;-30
2023/01/26 08:25:47;;;;;;;62.00;29.30;;;;;;;-0.07;100.00;99869.97;104779;1298;22673;-34
2023/01/26 08:28:12;;;;;;;68.30;32.90;;;;;;;-0.06;100.00;99865.96;104634;1302;22670;-34
2023/01/26 08:30:38;;;;;;;61.60;28.80;;;;;;;-0.05;100.00;99865.60;104706;1302;23158;-33
2023/01/26 08:33:04;;;;;;;78.00;32.00;;;;;;;-0.09;100.00;99867.68;104872;1302;23170;-36
2023/01/26 08:35:31;;;;;;;61.80;26.60;;;;;;;-0.14;100.00;99865.38;104733;1302;22801;-31
2023/01/26 08:37:57;;;;;;;41.90;19.30;;;;;;;-0.10;100.00;99861.20;104714;1302;23023;-31
2023/01/26 08:40:23;;;;;;;58.40;24.10;;;;;;;-0.06;100.00;99857.55;104757;1304;22721;-35
2023/01/26 08:42:53;;;;;;;37.80;18.50;;;;;;;0.01;100.00;99857.71;104719;1302;22657;-31
2023/01/26 08:45:19;;;;;;;63.60;24.60;;;;;;;0.11;100.00;99858.85;104688;1304;22660;-35
2023/01/26 08:47:49;;;;;;;34.50;17.80;;;;;;;0.11;100.00;99856.40;104754;1304;22666;-31
2023/01/26 08:50:15;;;;;;;37.70;17.20;;;;;;;0.11;100.00;99851.00;104706;1304;22964;-37
2023/01/26 08:52:41;;;;;;;59.40;20.70;;;;;;;0.14;100.00;99852.17;104837;1304;22783;-33
2023/01/26 08:55:07;;;;;;;49.30;22.70;;;;;;;0.14;100.00;99850.39;104762;1302;22667;-33
2023/01/26 08:57:32;;;;;;;45.50;22.50;;;;;;;0.14;100.00;99856.17;104738;1302;22573;-34
2023/01/26 08:59:58;;;;;;;58.60;25.90;;;;;;;0.19;100.00;99857.91;104742;1304;23144;-34
2023/01/26 09:02:24;;;;;;;33.40;15.60;;;;;;;0.26;100.00;99854.18;104688;1302;22671;-34
2023/01/26 09:04:50;;;;;;;37.00;16.50;;;;;;;0.26;100.00;99858.27;104674;1302;23206;-34
2023/01/26 09:07:17;;;;;;;33.80;15.70;;;;;;;0.30;100.00;99852.52;104681;1304;25298;-34
2023/01/26 09:09:44;;;;;;;35.80;18.70;;;;;;;0.36;100.00;99847.80;104829;1302;22802;-34
2023/01/26 09:12:10;;;;;;;33.20;15.90;;;;;;;0.35;100.00;99849.09;104796;1298;22796;-30
2023/01/26 09:14:36;;;;;;;36.00;16.90;;;;;;;0.38;100.00;99856.39;104739;1302;22553;-30
2023/01/26 09:17:01;;;;;;;25.00;10.60;;;;;;;0.36;100.00;99857.30;104861;1301;23368;-30
2023/01/26 09:19:27;;;;;;;23.30;12.10;;;;;;;0.42;100.00;99856.77;104748;1298;22726;-34
2023/01/26 09:21:53;;;;;;;22.60;11.70;;;;;;;0.45;100.00;99855.19;104689;1302;22622;-30
2023/01/26 09:24:22;;;;;;;22.00;11.90;;;;;;;0.57;100.00;99856.52;104712;1304;22654;-34
2023/01/26 09:26:48;;;;;;;36.80;14.40;;;;;;;0.45;100.00;99856.20;104739;1302;22652;-34
2023/01/26 09:29:15;;;;;;;27.00;13.00;;;;;;;0.44;100.00;99859.10;104700;1302;22842;-30
2023/01/26 09:31:44;;;;;;;67.90;19.60;;;;;;;0.39;100.00;99862.55;104692;1304;22796;-30
2023/01/26 09:34:10;;;;;;;35.50;13.50;;;;;;;0.38;100.00;99862.28;104772;1301;22588;-30
2023/01/26 09:36:36;;;;;;;28.90;12.90;;;;;;;0.43;100.00;99864.84;104662;1302;22567;-30
2023/01/26 09:39:02;;;;;;;97.50;41.80;;;;;;;0.48;100.00;99869.03;104775;1304;22572;-36
2023/01/26 09:41:43;;;;;;;500.70;154.50;;;;;;;0.52;100.00;99869.80;104688;1302;23447;-33
2023/01/26 09:44:10;;;;;;;97.80;29.00;;;;;;;0.55;100.00;99871.81;104798;1302;22667;-34
2023/01/26 09:47:03;;;;;;;67.10;22.00;;;;;;;0.52;100.00;99866.96;104757;1301;23043;-34
2023/01/26 09:49:53;;;;;;;22.10;11.10;;;;;;;0.58;100.00;99866.16;104663;1302;22808;-34
2023/01/26 09:52:27;;;;;;;26.20;11.30;;;;;;;0.42;100.00;99865.30;104676;1304;22622;-34
2023/01/26 09:54:54;;;;;;;21.30;9.20;;;;;;;0.33;100.00;99866.17;104740;1304;22931;-31
2023/01/26 09:57:23;;;;;;;27.40;12.90;;;;;;;0.39;100.00;99863.05;104705;1304;22675;-34
2023/01/26 10:00:04;;;;;;;23.30;12.40;;;;;;;0.45;100.00;99860.12;104779;1304;22567;-30
2023/01/26 10:02:49;;;;;;;17.80;8.90;;;;;;;0.45;100.00;99854.60;104746;1302;23167;-34
2023/01/26 10:05:27;;;;;;;21.60;10.60;;;;;;;0.49;100.00;99854.86;104622;1304;23027;-34
2023/01/26 10:07:53;;;;;;;18.30;9.10;;;;;;;0.44;100.00;99854.40;104676;1301;22676;-31
2023/01/26 10:10:26;;;;;;;19.50;8.80;;;;;;;0.39;100.00;99847.38;104625;1302;25291;-35
2023/01/26 10:12:52;;;;;;;22.10;10.10;;;;;;;0.43;100.00;99844.41;104854;1283;22730;-33
2023/01/26 10:15:34;;;;;;;22.00;9.80;;;;;;;0.26;100.00;99842.06;104720;1302;23162;-34
2023/01/26 10:18:03;;;;;;;13.30;7.10;;;;;;;0.22;100.00;99841.65;104667;1304;22665;-34
2023/01/26 10:20:34;;;;;;;19.70;9.50;;;;;;;0.18;100.00;99844.95;104813;1298;23978;-34
2023/01/26 10:23:15;;;;;;;19.40;9.60;;;;;;;0.23;100.00;99837.34;104859;1298;22678;-34
2023/01/26 10:25:43;;;;;;;22.20;10.30;;;;;;;0.30;100.00;99830.09;104733;1302;24385;-34
2023/01/26 10:28:25;;;;;;;21.00;10.20;;;;;;;0.28;100.00;99826.59;104708;1304;22837;-34
2023/01/26 10:30:51;;;;;;;33.30;12.80;;;;;;;0.33;100.00;99826.89;104724;1301;24403;-30
2023/01/26 10:33:31;;;;;;;33.60;12.60;;;;;;;0.36;100.00;99828.08;104802;1304;22666;-34
2023/01/26 10:35:58;;;;;;;40.70;15.60;;;;;;;0.43;100.00;99826.95;104683;1304;22792;-34
2023/01/26 10:38:38;;;;;;;53.90;16.50;;;;;;;0.50;100.00;99819.39;104623;1302;22570;-30
2023/01/26 10:41:23;;;;;;;25.90;10.40;;;;;;;0.59;100.00;99811.42;104719;1304;22928;-30
2023/01/26 10:43:52;;;;;;;218.20;66.30;;;;;;;0.54;100.00;99806.55;104637;1304;22685;-30
2023/01/26 10:46:32;;;;;;;280.60;89.30;;;;;;;0.58;100.00;99812.03;104844;1301;24426;-30
2023/01/26 10:49:13;;;;;;;168.90;59.50;;;;;;;0.62;100.00;99810.70;104748;1304;22752;-30
2023/01/26 10:51:43;;;;;;;125.60;34.40;;;;;;;0.61;100.00;99818.34;104747;1299;23029;-31
2023/01/26 10:54:21;;;;;;;107.10;33.00;;;;;;;0.63;100.00;99821.16;104731;1301;22670;-30
2023/01/26 10:57:01;;;;;;;67.50;22.60;;;;;;;0.70;100.00;99815.63;104757;1301;22566;-34
2023/01/26 10:59:31;;;;;;;38.10;17.50;;;;;;;0.74;100.00;99807.40;104820;1301;22548;-31
2023/01/26 11:02:00;;;;;;;36.70;17.40;;;;;;;0.77;100.00;99804.66;104694;1302;22806;-34
2023/01/26 11:04:26;;;;;;;31.20;14.50;;;;;;;0.77;100.00;99798.50;104675;1301;22658;-31
2023/01/26 11:47:14;;;;;;;93.40;40.50;;;;;;;0.50;100.00;99756.76;104567;1296;558080;-34
2023/01/26 11:49:56;;;;;;;;;;;;;;;0.49;100.00;99748.29;104157;1298;494536;-35
2023/01/26 11:52:41;;;;;;;36.70;16.80;;;;;;;0.42;100.00;99747.95;104753;1293;22940;-33
2023/01/26 11:55:35;;;;;;;36.80;15.00;;;;;;;0.44;100.00;99746.73;104482;1303;23026;-29
2023/01/26 11:58:20;;;;;;;29.30;14.10;;;;;;;0.45;100.00;99753.37;104666;1295;22809;-29
2023/01/26 12:00:50;;;;;;;36.40;16.50;;;;;;;0.46;100.00;99750.64;104373;1298;22762;-30
2023/01/26 12:03:34;;;;;;;32.30;15.20;;;;;;;0.41;100.00;99748.95;104684;1301;22569;-33
2023/01/26 12:06:01;;;;;;;;;;;;;;;0.44;100.00;99746.54;104791;1289;25433;-34
2023/01/26 12:08:37;;;;;;;143.30;59.40;;;;;;;0.43;100.00;99744.86;104850;1295;23118;-34
2023/01/26 12:11:21;;;;;;;145.30;55.90;;;;;;;0.48;100.00;99741.15;104619;1303;23035;-34
2023/01/26 12:14:11;;;;;;;184.90;70.80;;;;;;;0.49;100.00;99736.33;104675;1294;22763;-33
2023/01/26 12:16:59;;;;;;;72.40;27.70;;;;;;;0.45;100.00;99735.39;104728;1295;24301;-33
2023/01/26 12:19:39;;;;;;;61.10;24.80;;;;;;;0.46;100.00;99735.98;104900;1285;22800;-32
2023/01/26 12:22:12;;;;;;;38.20;15.50;;;;;;;0.43;100.00;99733.73;104759;1303;23153;-31
2023/01/26 12:24:42;;;;;;;39.10;17.10;;;;;;;0.47;100.00;99732.41;104720;1294;22941;-32
2023/01/26 12:27:15;;;;;;;66.10;20.30;;;;;;;0.55;100.00;99731.27;104649;1303;24014;-33
2023/01/26 12:29:49;;;;;;;46.50;18.60;;;;;;;0.47;100.00;99726.43;104739;1292;23918;-30
2023/01/26 12:32:15;;;;;;;;;;;;;;;0.37;100.00;99729.51;104535;1292;22540;-30
2023/01/26 12:34:41;;;;;;;41.90;20.70;;;;;;;0.35;100.00;99735.66;104698;1286;22531;-33
2023/01/26 12:37:27;;;;;;;44.20;22.20;;;;;;;0.34;100.00;99737.53;104716;1303;23179;-30
2023/01/26 12:40:02;;;;;;;61.20;29.40;;;;;;;0.32;100.00;99734.17;104483;1295;23185;-33
2023/01/26 12:42:43;;;;;;;44.30;22.10;;;;;;;0.33;100.00;99726.88;104502;1291;22560;-29
2023/01/26 12:45:14;;;;;;;48.30;18.90;;;;;;;0.30;100.00;99723.21;104727;1297;22669;-34
2023/01/26 12:47:48;;;;;;;33.30;14.30;;;;;;;0.29;100.00;99721.69;104493;1303;23028;-30
2023/01/26 12:50:38;;;;;;;27.20;13.50;;;;;;;0.33;100.00;99722.61;104791;1294;24816;-35
2023/01/26 12:53:15;;;;;;;65.70;28.80;;;;;;;0.45;100.00;99721.33;104808;1295;23121;-31
2023/01/26 12:55:45;;;;;;;46.60;25.60;;;;;;;0.49;100.00;99718.02;104667;1289;23104;-33
2023/01/26 12:58:26;;;;;;;40.60;19.80;;;;;;;0.47;100.00;99718.70;104724;1280;22612;-31
2023/01/26 13:01:04;;;;;;;51.40;24.50;;;;;;;0.50;100.00;99712.27;104708;1294;22748;-30
2023/01/26 13:03:33;;;;;;;37.90;18.30;;;;;;;0.55;100.00;99713.74;104575;1298;22709;-34
2023/01/26 13:06:01;;;;;;;41.40;18.10;;;;;;;0.56;100.00;99705.77;104726;1286;22788;-30
2023/01/26 13:08:52;;;;;;;30.00;14.90;;;;;;;0.52;100.00;99702.25;104780;1304;22582;-30
2023/01/26 13:11:42;;;;;;;29.30;11.80;;;;;;;0.53;100.00;99702.48;104674;1295;22815;-31
2023/01/26 13:14:39;;;;;;;35.20;15.10;;;;;;;0.41;100.00;99705.90;104577;1295;23041;-30
2023/01/26 13:17:37;;;;;;;28.50;11.30;;;;;;;0.47;100.00;99704.58;104804;1294;22667;-30
2023/01/26 13:20:14;;;;;;;29.40;13.30;;;;;;;0.45;100.00;99705.46;104727;1292;22668;-30